sensor_id;sensor_type;location;lat;lon;timestamp;P1;durP1;ratioP1;P2;durP2;ratioP2
37389;SDS011;39679;49.000;8.390;2022-07-10T00:02:03;1.40;;;1.30;;
37389;SDS011;39679;49.000;8.390;2022-07-10T00:07:03;3.05;;;1.80;;
37389;SDS011;39679;49.000;8.390;2022-07-10T00:12:04;1.80;;;1.45;;
37389;SDS011;39679;49.000;8.390;2022-07-10T00:17:04;18.48;;;2.30;;
37389;SDS011;39679;49.000;8.390;2022-07-10T00:22:05;1.63;;;1.52;;
37389;SDS011;39679;49.000;8.390;2022-07-10T00:27:05;3.00;;;1.88;;
37389;SDS011;39679;49.000;8.390;2022-07-10T00:32:05;3.60;;;1.75;;
37389;SDS011;39679;49.000;8.390;2022-07-10T00:37:06;2.50;;;1.85;;
37389;SDS011;39679;49.000;8.390;2022-07-10T00:42:10;4.20;;;1.80;;
37389;SDS011;39679;49.000;8.390;2022-07-10T00:47:12;3.00;;;1.90;;
37389;SDS011;39679;49.000;8.390;2022-07-10T00:52:13;2.40;;;1.50;;
37389;SDS011;39679;49.000;8.390;2022-07-10T00:57:16;2.72;;;1.83;;
37389;SDS011;39679;49.000;8.390;2022-07-10T01:02:18;4.68;;;1.88;;
37389;SDS011;39679;49.000;8.390;2022-07-10T01:07:18;3.38;;;1.30;;
37389;SDS011;39679;49.000;8.390;2022-07-10T01:12:19;1.50;;;1.40;;
37389;SDS011;39679;49.000;8.390;2022-07-10T01:17:20;1.60;;;1.45;;
37389;SDS011;39679;49.000;8.390;2022-07-10T01:22:23;1.77;;;1.42;;
37389;SDS011;39679;49.000;8.390;2022-07-10T01:27:24;1.75;;;1.50;;
37389;SDS011;39679;49.000;8.390;2022-07-10T01:32:24;2.15;;;1.33;;
37389;SDS011;39679;49.000;8.390;2022-07-10T01:37:24;1.75;;;1.50;;
37389;SDS011;39679;49.000;8.390;2022-07-10T01:42:25;3.13;;;1.40;;
37389;SDS011;39679;49.000;8.390;2022-07-10T01:47:25;1.45;;;1.15;;
37389;SDS011;39679;49.000;8.390;2022-07-10T01:52:26;3.08;;;1.42;;
37389;SDS011;39679;49.000;8.390;2022-07-10T01:57:26;1.95;;;1.52;;
37389;SDS011;39679;49.000;8.390;2022-07-10T02:02:26;1.98;;;1.38;;
37389;SDS011;39679;49.000;8.390;2022-07-10T02:07:27;3.00;;;1.30;;
37389;SDS011;39679;49.000;8.390;2022-07-10T02:12:27;1.67;;;1.35;;
37389;SDS011;39679;49.000;8.390;2022-07-10T02:17:27;2.30;;;1.67;;
37389;SDS011;39679;49.000;8.390;2022-07-10T02:22:28;1.75;;;1.40;;
37389;SDS011;39679;49.000;8.390;2022-07-10T02:27:28;1.70;;;1.35;;
37389;SDS011;39679;49.000;8.390;2022-07-10T02:32:28;1.42;;;1.33;;
37389;SDS011;39679;49.000;8.390;2022-07-10T02:37:29;2.00;;;1.67;;
37389;SDS011;39679;49.000;8.390;2022-07-10T02:42:29;1.45;;;1.25;;
37389;SDS011;39679;49.000;8.390;2022-07-10T02:47:29;2.03;;;1.50;;
37389;SDS011;39679;49.000;8.390;2022-07-10T02:52:30;3.15;;;1.35;;
37389;SDS011;39679;49.000;8.390;2022-07-10T02:57:30;2.47;;;1.13;;
37389;SDS011;39679;49.000;8.390;2022-07-10T03:02:30;2.00;;;1.25;;
37389;SDS011;39679;49.000;8.390;2022-07-10T03:07:31;1.30;;;1.13;;
37389;SDS011;39679;49.000;8.390;2022-07-10T03:12:31;1.63;;;1.38;;
37389;SDS011;39679;49.000;8.390;2022-07-10T03:17:32;1.20;;;1.10;;
37389;SDS011;39679;49.000;8.390;2022-07-10T03:22:32;2.25;;;1.50;;
37389;SDS011;39679;49.000;8.390;2022-07-10T03:27:33;1.25;;;1.15;;
37389;SDS011;39679;49.000;8.390;2022-07-10T03:32:33;1.42;;;1.23;;
37389;SDS011;39679;49.000;8.390;2022-07-10T03:37:35;1.40;;;1.10;;
37389;SDS011;39679;49.000;8.390;2022-07-10T03:42:35;1.63;;;1.30;;
37389;SDS011;39679;49.000;8.390;2022-07-10T03:47:35;1.63;;;1.35;;
37389;SDS011;39679;49.000;8.390;2022-07-10T03:52:36;2.00;;;1.40;;
37389;SDS011;39679;49.000;8.390;2022-07-10T03:57:36;1.30;;;1.20;;
37389;SDS011;39679;49.000;8.390;2022-07-10T04:02:36;1.60;;;1.50;;
37389;SDS011;39679;49.000;8.390;2022-07-10T04:07:37;1.25;;;1.20;;
37389;SDS011;39679;49.000;8.390;2022-07-10T04:12:37;0.90;;;0.90;;
37389;SDS011;39679;49.000;8.390;2022-07-10T04:17:38;1.38;;;1.20;;
37389;SDS011;39679;49.000;8.390;2022-07-10T04:22:38;1.87;;;1.30;;
37389;SDS011;39679;49.000;8.390;2022-07-10T04:27:38;1.30;;;1.00;;
37389;SDS011;39679;49.000;8.390;2022-07-10T04:32:39;1.20;;;1.10;;
37389;SDS011;39679;49.000;8.390;2022-07-10T04:37:39;1.35;;;1.10;;
37389;SDS011;39679;49.000;8.390;2022-07-10T04:42:40;1.47;;;1.20;;
37389;SDS011;39679;49.000;8.390;2022-07-10T04:47:40;1.23;;;1.00;;
37389;SDS011;39679;49.000;8.390;2022-07-10T04:52:40;1.20;;;1.10;;
37389;SDS011;39679;49.000;8.390;2022-07-10T04:57:41;1.33;;;1.10;;
37389;SDS011;39679;49.000;8.390;2022-07-10T05:02:41;1.10;;;1.00;;
37389;SDS011;39679;49.000;8.390;2022-07-10T05:07:42;1.33;;;1.13;;
37389;SDS011;39679;49.000;8.390;2022-07-10T05:12:42;2.25;;;1.02;;
37389;SDS011;39679;49.000;8.390;2022-07-10T05:17:42;1.55;;;0.90;;
37389;SDS011;39679;49.000;8.390;2022-07-10T05:22:43;0.97;;;0.90;;
37389;SDS011;39679;49.000;8.390;2022-07-10T05:27:43;1.13;;;1.00;;
37389;SDS011;39679;49.000;8.390;2022-07-10T05:32:44;2.03;;;1.10;;
37389;SDS011;39679;49.000;8.390;2022-07-10T05:37:45;1.70;;;0.95;;
37389;SDS011;39679;49.000;8.390;2022-07-10T05:42:45;1.40;;;1.10;;
37389;SDS011;39679;49.000;8.390;2022-07-10T05:47:46;1.98;;;1.05;;
37389;SDS011;39679;49.000;8.390;2022-07-10T05:52:46;1.55;;;0.95;;
37389;SDS011;39679;49.000;8.390;2022-07-10T05:57:46;1.10;;;1.10;;
37389;SDS011;39679;49.000;8.390;2022-07-10T06:02:47;1.25;;;0.85;;
37389;SDS011;39679;49.000;8.390;2022-07-10T06:07:47;1.42;;;0.85;;
37389;SDS011;39679;49.000;8.390;2022-07-10T06:12:47;1.35;;;1.02;;
37389;SDS011;39679;49.000;8.390;2022-07-10T06:17:48;2.05;;;1.00;;
37389;SDS011;39679;49.000;8.390;2022-07-10T06:22:48;0.90;;;0.90;;
37389;SDS011;39679;49.000;8.390;2022-07-10T06:27:49;1.23;;;1.13;;
37389;SDS011;39679;49.000;8.390;2022-07-10T06:32:49;0.95;;;0.93;;
37389;SDS011;39679;49.000;8.390;2022-07-10T06:37:49;0.90;;;0.90;;
37389;SDS011;39679;49.000;8.390;2022-07-10T06:42:50;1.52;;;1.00;;
37389;SDS011;39679;49.000;8.390;2022-07-10T06:47:50;2.03;;;0.75;;
37389;SDS011;39679;49.000;8.390;2022-07-10T06:52:50;0.77;;;0.77;;
37389;SDS011;39679;49.000;8.390;2022-07-10T06:57:51;1.25;;;0.90;;
37389;SDS011;39679;49.000;8.390;2022-07-10T07:02:52;1.13;;;0.88;;
37389;SDS011;39679;49.000;8.390;2022-07-10T07:07:52;1.58;;;0.82;;
37389;SDS011;39679;49.000;8.390;2022-07-10T07:12:52;1.43;;;1.10;;
37389;SDS011;39679;49.000;8.390;2022-07-10T07:17:53;1.97;;;1.00;;
37389;SDS011;39679;49.000;8.390;2022-07-10T07:22:53;0.80;;;0.80;;
37389;SDS011;39679;49.000;8.390;2022-07-10T07:27:53;0.70;;;0.70;;
37389;SDS011;39679;49.000;8.390;2022-07-10T07:32:54;0.95;;;0.90;;
37389;SDS011;39679;49.000;8.390;2022-07-10T07:37:54;1.00;;;0.90;;
37389;SDS011;39679;49.000;8.390;2022-07-10T07:42:55;1.42;;;0.90;;
37389;SDS011;39679;49.000;8.390;2022-07-10T07:47:56;0.80;;;0.80;;
37389;SDS011;39679;49.000;8.390;2022-07-10T07:52:58;1.02;;;0.93;;
37389;SDS011;39679;49.000;8.390;2022-07-10T07:57:59;0.98;;;0.80;;
37389;SDS011;39679;49.000;8.390;2022-07-10T08:03:00;0.80;;;0.80;;
37389;SDS011;39679;49.000;8.390;2022-07-10T08:08:00;1.20;;;0.85;;
37389;SDS011;39679;49.000;8.390;2022-07-10T08:13:01;2.25;;;1.00;;
37389;SDS011;39679;49.000;8.390;2022-07-10T08:18:02;2.63;;;1.23;;
37389;SDS011;39679;49.000;8.390;2022-07-10T08:23:02;2.28;;;0.90;;
37389;SDS011;39679;49.000;8.390;2022-07-10T08:28:02;5.72;;;1.10;;
37389;SDS011;39679;49.000;8.390;2022-07-10T08:33:04;2.15;;;0.90;;
37389;SDS011;39679;49.000;8.390;2022-07-10T08:38:04;3.20;;;1.17;;
37389;SDS011;39679;49.000;8.390;2022-07-10T08:43:08;2.08;;;0.93;;
37389;SDS011;39679;49.000;8.390;2022-07-10T08:48:08;3.83;;;1.10;;
37389;SDS011;39679;49.000;8.390;2022-07-10T08:53:13;5.47;;;1.50;;
37389;SDS011;39679;49.000;8.390;2022-07-10T08:58:16;3.17;;;1.30;;
37389;SDS011;39679;49.000;8.390;2022-07-10T09:03:18;4.78;;;1.33;;
37389;SDS011;39679;49.000;8.390;2022-07-10T09:13:25;2.45;;;1.27;;
37389;SDS011;39679;49.000;8.390;2022-07-10T09:18:26;3.17;;;1.30;;
37389;SDS011;39679;49.000;8.390;2022-07-10T09:23:26;3.15;;;1.40;;
37389;SDS011;39679;49.000;8.390;2022-07-10T09:28:27;3.97;;;1.27;;
37389;SDS011;39679;49.000;8.390;2022-07-10T09:33:28;2.63;;;1.40;;
37389;SDS011;39679;49.000;8.390;2022-07-10T09:43:46;4.13;;;1.10;;
37389;SDS011;39679;49.000;8.390;2022-07-10T09:54:02;2.95;;;0.98;;
37389;SDS011;39679;49.000;8.390;2022-07-10T09:59:06;2.30;;;1.00;;
37389;SDS011;39679;49.000;8.390;2022-07-10T10:04:09;1.48;;;1.00;;
37389;SDS011;39679;49.000;8.390;2022-07-10T10:14:30;1.60;;;0.85;;
37389;SDS011;39679;49.000;8.390;2022-07-10T10:19:31;3.63;;;1.00;;
37389;SDS011;39679;49.000;8.390;2022-07-10T10:24:33;3.17;;;0.60;;
37389;SDS011;39679;49.000;8.390;2022-07-10T10:29:35;1.55;;;0.73;;
37389;SDS011;39679;49.000;8.390;2022-07-10T10:34:40;2.55;;;0.80;;
37389;SDS011;39679;49.000;8.390;2022-07-10T10:39:54;2.17;;;0.70;;
37389;SDS011;39679;49.000;8.390;2022-07-10T10:45:21;6.30;;;0.80;;
37389;SDS011;39679;49.000;8.390;2022-07-10T10:50:40;4.53;;;1.20;;
37389;SDS011;39679;49.000;8.390;2022-07-10T10:55:40;3.28;;;0.95;;
37389;SDS011;39679;49.000;8.390;2022-07-10T11:00:41;2.58;;;0.80;;
37389;SDS011;39679;49.000;8.390;2022-07-10T11:05:42;3.00;;;1.17;;
37389;SDS011;39679;49.000;8.390;2022-07-10T11:10:43;3.53;;;0.90;;
37389;SDS011;39679;49.000;8.390;2022-07-10T11:15:46;2.42;;;0.90;;
37389;SDS011;39679;49.000;8.390;2022-07-10T11:20:49;2.13;;;1.00;;
37389;SDS011;39679;49.000;8.390;2022-07-10T11:31:00;2.83;;;1.00;;
37389;SDS011;39679;49.000;8.390;2022-07-10T11:36:00;1.83;;;0.60;;
37389;SDS011;39679;49.000;8.390;2022-07-10T11:46:13;3.17;;;1.05;;
37389;SDS011;39679;49.000;8.390;2022-07-10T11:56:20;2.05;;;0.90;;
37389;SDS011;39679;49.000;8.390;2022-07-10T12:01:21;4.30;;;1.05;;
37389;SDS011;39679;49.000;8.390;2022-07-10T12:06:21;3.03;;;1.05;;
37389;SDS011;39679;49.000;8.390;2022-07-10T12:11:25;2.40;;;0.93;;
37389;SDS011;39679;49.000;8.390;2022-07-10T12:16:25;1.75;;;0.57;;
37389;SDS011;39679;49.000;8.390;2022-07-10T12:21:25;3.20;;;1.13;;
37389;SDS011;39679;49.000;8.390;2022-07-10T12:26:32;1.85;;;0.70;;
37389;SDS011;39679;49.000;8.390;2022-07-10T12:31:34;2.67;;;0.63;;
37389;SDS011;39679;49.000;8.390;2022-07-10T12:47:03;0.80;;;0.50;;
37389;SDS011;39679;49.000;8.390;2022-07-10T12:52:18;2.88;;;0.88;;
37389;SDS011;39679;49.000;8.390;2022-07-10T12:57:22;6.70;;;1.05;;
37389;SDS011;39679;49.000;8.390;2022-07-10T13:02:23;2.65;;;0.80;;
37389;SDS011;39679;49.000;8.390;2022-07-10T13:07:33;2.00;;;0.70;;
37389;SDS011;39679;49.000;8.390;2022-07-10T13:12:34;1.70;;;1.00;;
37389;SDS011;39679;49.000;8.390;2022-07-10T13:17:42;2.38;;;0.90;;
37389;SDS011;39679;49.000;8.390;2022-07-10T13:22:44;4.43;;;1.00;;
37389;SDS011;39679;49.000;8.390;2022-07-10T13:27:44;2.42;;;0.90;;
37389;SDS011;39679;49.000;8.390;2022-07-10T13:32:45;1.98;;;1.02;;
37389;SDS011;39679;49.000;8.390;2022-07-10T13:37:45;1.83;;;0.82;;
37389;SDS011;39679;49.000;8.390;2022-07-10T13:42:45;2.25;;;0.80;;
37389;SDS011;39679;49.000;8.390;2022-07-10T13:47:46;2.47;;;0.90;;
37389;SDS011;39679;49.000;8.390;2022-07-10T13:52:46;1.15;;;0.68;;
37389;SDS011;39679;49.000;8.390;2022-07-10T13:57:47;1.90;;;0.70;;
37389;SDS011;39679;49.000;8.390;2022-07-10T14:02:47;3.25;;;1.02;;
37389;SDS011;39679;49.000;8.390;2022-07-10T14:07:48;2.50;;;0.93;;
37389;SDS011;39679;49.000;8.390;2022-07-10T14:12:48;1.80;;;0.80;;
37389;SDS011;39679;49.000;8.390;2022-07-10T14:17:48;2.05;;;0.85;;
37389;SDS011;39679;49.000;8.390;2022-07-10T14:22:49;2.80;;;0.70;;
37389;SDS011;39679;49.000;8.390;2022-07-10T14:27:49;3.15;;;0.90;;
37389;SDS011;39679;49.000;8.390;2022-07-10T14:32:50;2.87;;;1.13;;
37389;SDS011;39679;49.000;8.390;2022-07-10T14:37:50;1.00;;;0.70;;
37389;SDS011;39679;49.000;8.390;2022-07-10T14:42:50;3.33;;;0.93;;
37389;SDS011;39679;49.000;8.390;2022-07-10T14:47:51;2.22;;;0.90;;
37389;SDS011;39679;49.000;8.390;2022-07-10T14:52:51;2.85;;;1.27;;
37389;SDS011;39679;49.000;8.390;2022-07-10T14:57:51;3.25;;;1.17;;
37389;SDS011;39679;49.000;8.390;2022-07-10T15:02:52;1.33;;;0.90;;
37389;SDS011;39679;49.000;8.390;2022-07-10T15:07:52;1.40;;;0.77;;
37389;SDS011;39679;49.000;8.390;2022-07-10T15:12:52;1.10;;;0.60;;
37389;SDS011;39679;49.000;8.390;2022-07-10T15:17:53;1.00;;;0.77;;
37389;SDS011;39679;49.000;8.390;2022-07-10T15:22:53;3.03;;;1.10;;
37389;SDS011;39679;49.000;8.390;2022-07-10T15:27:53;3.83;;;1.53;;
37389;SDS011;39679;49.000;8.390;2022-07-10T15:32:54;3.67;;;1.00;;
37389;SDS011;39679;49.000;8.390;2022-07-10T15:37:54;0.90;;;0.70;;
37389;SDS011;39679;49.000;8.390;2022-07-10T15:42:54;3.00;;;1.00;;
37389;SDS011;39679;49.000;8.390;2022-07-10T15:47:55;2.05;;;0.88;;
37389;SDS011;39679;49.000;8.390;2022-07-10T15:52:55;1.60;;;0.90;;
37389;SDS011;39679;49.000;8.390;2022-07-10T15:57:56;2.83;;;1.30;;
37389;SDS011;39679;49.000;8.390;2022-07-10T16:02:56;5.50;;;1.88;;
37389;SDS011;39679;49.000;8.390;2022-07-10T16:07:57;3.88;;;2.08;;
37389;SDS011;39679;49.000;8.390;2022-07-10T16:12:57;5.40;;;1.73;;
37389;SDS011;39679;49.000;8.390;2022-07-10T16:17:57;3.08;;;1.70;;
37389;SDS011;39679;49.000;8.390;2022-07-10T16:22:58;3.80;;;1.67;;
37389;SDS011;39679;49.000;8.390;2022-07-10T16:27:58;3.10;;;1.48;;
37389;SDS011;39679;49.000;8.390;2022-07-10T16:32:58;3.42;;;1.73;;
37389;SDS011;39679;49.000;8.390;2022-07-10T16:37:59;3.88;;;1.25;;
37389;SDS011;39679;49.000;8.390;2022-07-10T16:42:59;3.05;;;1.45;;
37389;SDS011;39679;49.000;8.390;2022-07-10T16:47:59;5.72;;;1.58;;
37389;SDS011;39679;49.000;8.390;2022-07-10T16:53:00;3.13;;;1.20;;
37389;SDS011;39679;49.000;8.390;2022-07-10T16:58:01;2.97;;;1.25;;
37389;SDS011;39679;49.000;8.390;2022-07-10T17:03:02;4.88;;;1.13;;
37389;SDS011;39679;49.000;8.390;2022-07-10T17:08:03;4.38;;;1.33;;
37389;SDS011;39679;49.000;8.390;2022-07-10T17:13:04;4.90;;;1.35;;
37389;SDS011;39679;49.000;8.390;2022-07-10T17:18:04;3.95;;;1.85;;
37389;SDS011;39679;49.000;8.390;2022-07-10T17:23:05;2.67;;;1.20;;
37389;SDS011;39679;49.000;8.390;2022-07-10T17:28:05;1.83;;;1.15;;
37389;SDS011;39679;49.000;8.390;2022-07-10T17:33:06;2.28;;;1.25;;
37389;SDS011;39679;49.000;8.390;2022-07-10T17:38:06;1.63;;;0.90;;
37389;SDS011;39679;49.000;8.390;2022-07-10T17:43:06;3.22;;;1.15;;
37389;SDS011;39679;49.000;8.390;2022-07-10T17:48:07;3.60;;;1.15;;
37389;SDS011;39679;49.000;8.390;2022-07-10T17:53:07;3.55;;;1.27;;
37389;SDS011;39679;49.000;8.390;2022-07-10T17:58:08;1.33;;;0.88;;
37389;SDS011;39679;49.000;8.390;2022-07-10T18:03:08;4.88;;;1.38;;
37389;SDS011;39679;49.000;8.390;2022-07-10T18:08:08;2.05;;;1.13;;
37389;SDS011;39679;49.000;8.390;2022-07-10T18:13:09;2.20;;;1.00;;
37389;SDS011;39679;49.000;8.390;2022-07-10T18:18:09;5.60;;;1.75;;
37389;SDS011;39679;49.000;8.390;2022-07-10T18:23:10;4.13;;;1.90;;
37389;SDS011;39679;49.000;8.390;2022-07-10T18:28:10;5.43;;;2.30;;
37389;SDS011;39679;49.000;8.390;2022-07-10T18:33:10;26.23;;;1.90;;
37389;SDS011;39679;49.000;8.390;2022-07-10T18:38:11;4.25;;;1.20;;
37389;SDS011;39679;49.000;8.390;2022-07-10T18:43:11;2.78;;;1.27;;
37389;SDS011;39679;49.000;8.390;2022-07-10T18:48:11;6.35;;;1.77;;
37389;SDS011;39679;49.000;8.390;2022-07-10T18:53:12;3.65;;;1.40;;
37389;SDS011;39679;49.000;8.390;2022-07-10T18:58:12;4.10;;;1.27;;
37389;SDS011;39679;49.000;8.390;2022-07-10T19:03:12;2.72;;;1.13;;
37389;SDS011;39679;49.000;8.390;2022-07-10T19:08:13;2.13;;;1.20;;
37389;SDS011;39679;49.000;8.390;2022-07-10T19:13:13;3.47;;;1.07;;
37389;SDS011;39679;49.000;8.390;2022-07-10T19:18:14;2.33;;;1.00;;
37389;SDS011;39679;49.000;8.390;2022-07-10T19:23:14;1.70;;;1.10;;
37389;SDS011;39679;49.000;8.390;2022-07-10T19:28:15;1.70;;;1.10;;
37389;SDS011;39679;49.000;8.390;2022-07-10T19:33:15;1.50;;;0.77;;
37389;SDS011;39679;49.000;8.390;2022-07-10T19:38:15;2.10;;;1.40;;
37389;SDS011;39679;49.000;8.390;2022-07-10T19:43:16;2.67;;;1.30;;
37389;SDS011;39679;49.000;8.390;2022-07-10T19:48:16;2.85;;;1.40;;
37389;SDS011;39679;49.000;8.390;2022-07-10T19:53:16;2.15;;;1.63;;
37389;SDS011;39679;49.000;8.390;2022-07-10T19:58:17;2.88;;;1.48;;
37389;SDS011;39679;49.000;8.390;2022-07-10T20:03:17;2.08;;;1.17;;
37389;SDS011;39679;49.000;8.390;2022-07-10T20:08:17;2.00;;;1.30;;
37389;SDS011;39679;49.000;8.390;2022-07-10T20:13:18;2.65;;;1.40;;
37389;SDS011;39679;49.000;8.390;2022-07-10T20:18:18;1.55;;;1.20;;
37389;SDS011;39679;49.000;8.390;2022-07-10T20:23:19;3.28;;;1.25;;
37389;SDS011;39679;49.000;8.390;2022-07-10T20:28:19;2.58;;;1.48;;
37389;SDS011;39679;49.000;8.390;2022-07-10T20:33:20;3.43;;;1.83;;
37389;SDS011;39679;49.000;8.390;2022-07-10T20:38:20;3.90;;;1.60;;
37389;SDS011;39679;49.000;8.390;2022-07-10T20:43:20;3.43;;;1.60;;
37389;SDS011;39679;49.000;8.390;2022-07-10T20:48:21;3.45;;;2.13;;
37389;SDS011;39679;49.000;8.390;2022-07-10T20:53:21;3.72;;;2.05;;
37389;SDS011;39679;49.000;8.390;2022-07-10T20:58:22;3.13;;;1.77;;
37389;SDS011;39679;49.000;8.390;2022-07-10T21:03:22;4.13;;;1.90;;
37389;SDS011;39679;49.000;8.390;2022-07-10T21:08:23;3.30;;;1.58;;
37389;SDS011;39679;49.000;8.390;2022-07-10T21:13:23;2.67;;;2.00;;
37389;SDS011;39679;49.000;8.390;2022-07-10T21:18:23;3.47;;;1.60;;
37389;SDS011;39679;49.000;8.390;2022-07-10T21:23:24;4.25;;;1.65;;
37389;SDS011;39679;49.000;8.390;2022-07-10T21:28:25;2.35;;;1.50;;
37389;SDS011;39679;49.000;8.390;2022-07-10T21:33:25;2.75;;;1.52;;
37389;SDS011;39679;49.000;8.390;2022-07-10T21:38:25;4.50;;;1.30;;
37389;SDS011;39679;49.000;8.390;2022-07-10T21:43:26;4.70;;;1.55;;
37389;SDS011;39679;49.000;8.390;2022-07-10T21:48:26;3.55;;;1.65;;
37389;SDS011;39679;49.000;8.390;2022-07-10T21:53:27;8.25;;;2.10;;
37389;SDS011;39679;49.000;8.390;2022-07-10T21:58:27;3.17;;;1.65;;
37389;SDS011;39679;49.000;8.390;2022-07-10T22:03:28;2.42;;;1.45;;
37389;SDS011;39679;49.000;8.390;2022-07-10T22:08:28;1.40;;;1.30;;
37389;SDS011;39679;49.000;8.390;2022-07-10T22:13:28;3.22;;;1.90;;
37389;SDS011;39679;49.000;8.390;2022-07-10T22:18:29;3.10;;;1.40;;
37389;SDS011;39679;49.000;8.390;2022-07-10T22:23:29;1.73;;;1.63;;
37389;SDS011;39679;49.000;8.390;2022-07-10T22:28:30;1.63;;;1.33;;
37389;SDS011;39679;49.000;8.390;2022-07-10T22:33:31;1.73;;;1.42;;
37389;SDS011;39679;49.000;8.390;2022-07-10T22:38:31;2.93;;;1.50;;
37389;SDS011;39679;49.000;8.390;2022-07-10T22:43:31;2.00;;;1.52;;
37389;SDS011;39679;49.000;8.390;2022-07-10T22:48:32;2.00;;;1.50;;
37389;SDS011;39679;49.000;8.390;2022-07-10T22:53:32;1.73;;;1.40;;
37389;SDS011;39679;49.000;8.390;2022-07-10T22:58:33;4.57;;;1.70;;
37389;SDS011;39679;49.000;8.390;2022-07-10T23:03:33;1.60;;;1.50;;
37389;SDS011;39679;49.000;8.390;2022-07-10T23:08:33;2.53;;;1.65;;
37389;SDS011;39679;49.000;8.390;2022-07-10T23:13:34;2.53;;;1.83;;
37389;SDS011;39679;49.000;8.390;2022-07-10T23:18:34;2.40;;;1.50;;
37389;SDS011;39679;49.000;8.390;2022-07-10T23:23:34;3.57;;;1.67;;
37389;SDS011;39679;49.000;8.390;2022-07-10T23:28:35;1.77;;;1.40;;
37389;SDS011;39679;49.000;8.390;2022-07-10T23:33:35;1.50;;;1.27;;
37389;SDS011;39679;49.000;8.390;2022-07-10T23:38:36;1.77;;;1.50;;
37389;SDS011;39679;49.000;8.390;2022-07-10T23:43:36;4.70;;;1.65;;
37389;SDS011;39679;49.000;8.390;2022-07-10T23:48:36;3.95;;;1.48;;
37389;SDS011;39679;49.000;8.390;2022-07-10T23:53:37;2.70;;;1.77;;
37389;SDS011;39679;49.000;8.390;2022-07-10T23:58:37;2.78;;;1.60;;
